Flight Track Log - Related Links

Times and Time Zones

All times are in EDT time to prevent confusion due to time zone crossing. See the WBR2634 flight status page for this flight to view local times or setup timezone preferences in your user account.

Time Position Orientation Groundspeed Altitude Reporting Facility
EDT Latitude Longitude Course Direction KTS MPH feet Rate Location/Type
Tue 09:31:14 PM 40.8175 -91.1100 65° Northeast 81 93 2,600  Level Chicago Center
Tue 09:32:16 PM 40.8250 -91.0756 74° East 96 110 3,600 919 Climbing Chicago Center
Tue 09:33:00 PM 40.8610 -90.7780 57° Northeast  Level FlightAware Approximate
Tue 09:33:18 PM 40.8356 -91.0403 68° East 100 115 4,500  Level Chicago Center
Tue 09:34:00 PM 40.9054 -90.7450 72° East  Level FlightAware Approximate
Tue 09:34:20 PM 40.8517 -90.9950 65° Northeast 110 127 5,400  Level Chicago Center
Tue 09:35:00 PM 40.9207 -90.6884 65° Northeast  Level FlightAware Approximate
Tue 09:35:21 PM 40.8656 -90.9556 65° Northeast 116 133 6,100  Level Chicago Center
Tue 09:36:00 PM 40.9396 -90.6336 65° Northeast  Level FlightAware Approximate
Tue 09:36:23 PM 40.8797 -90.9131 66° East 124 143 6,900  Level Chicago Center
Tue 09:37:25 PM 40.8950 -90.8689 65° Northeast 130 150 7,600 629 Climbing Chicago Center
Tue 09:38:27 PM 40.9103 -90.8217 67° East 138 159 8,200 581 Climbing Chicago Center
Tue 09:39:29 PM 40.9261 -90.7750 66° East 139 160 8,800 435 Climbing Chicago Center
Tue 09:40:31 PM 40.9433 -90.7250 65° Northeast 149 171 9,100 145 Climbing Chicago Center
Tue 09:41:33 PM 40.9661 -90.6600 65° Northeast 163 188 9,100  Level Chicago Center
Tue 09:42:35 PM 40.9831 -90.6019 69° East 170 196 9,100  Level Chicago Center
Tue 09:43:37 PM 41.0019 -90.5461 66° East 167 192 9,100  Level Chicago Center
Tue 09:44:38 PM 41.0200 -90.4903 67° East 166 191 9,100  Level Chicago Center
Tue 09:45:41 PM 41.0383 -90.4333 67° East 168 193 9,100 -48 Level Chicago Center
Tue 09:46:42 PM 41.0558 -90.3767 68° East 166 191 9,000 -49 Descending Chicago Center
Tue 09:47:44 PM 41.0747 -90.3208 66° East 166 191 9,000  Level Chicago Center
Tue 09:48:45 PM 41.0939 -90.2644 66° East 167 192 9,000  Level Chicago Center
Tue 09:49:47 PM 41.1169 -90.1972 66° East 167 192 9,000 48 Level Chicago Center
Tue 09:50:49 PM 41.1347 -90.1428 67° East 164 189 9,100 48 Climbing Chicago Center
Tue 09:51:51 PM 41.1536 -90.0856 66° East 166 191 9,100  Level Chicago Center
Tue 09:52:52 PM 41.1722 -90.0300 66° East 165 190 9,100  Level Chicago Center
Tue 09:53:54 PM 41.1908 -89.9725 67° East 168 193 9,100  Level Chicago Center
Tue 09:54:56 PM 41.2106 -89.9167 65° Northeast 167 192 9,100  Level Chicago Center
Tue 09:55:57 PM 41.2294 -89.8603 66° East 167 192 9,100  Level Chicago Center
Tue 09:56:59 PM 41.2486 -89.8039 66° East 167 192 9,100  Level Chicago Center
Tue 09:58:01 PM 41.2706 -89.7369 66° East 165 190 9,100  Level Chicago Center
Tue 09:59:02 PM 41.2872 -89.6797 69° East 166 191 9,100 -49 Level Chicago Center
Tue 10:00:04 PM 41.3044 -89.6225 68° East 166 191 9,000 -49 Descending Chicago Center
Tue 10:01:05 PM 41.3211 -89.5653 69° East 166 191 9,000 49 Level Chicago Center
Tue 10:02:07 PM 41.3356 -89.5089 71° East 164 189 9,100 48 Climbing Chicago Center
Tue 10:03:09 PM 41.3519 -89.4550 68° East 159 183 9,100  Level Chicago Center
Tue 10:04:10 PM 41.3708 -89.4017 65° Northeast 159 183 9,100  Level Chicago Center
Tue 10:05:12 PM 41.3856 -89.3494 69° East 153 176 9,100 -49 Level Chicago Center
Tue 10:06:13 PM 41.4053 -89.2869 67° East 154 177 9,000  Descending Chicago Center
Tue 10:07:15 PM 41.4200 -89.2353 69° East 151 174 9,100 49 Climbing Chicago Center
Tue 10:08:16 PM 41.4336 -89.1906 68° East 150 173 9,100  Level Chicago Center
Tue 10:09:18 PM 41.4544 -89.1306 65° Northeast 151 174 9,100  Level Chicago Center
Tue 10:10:19 PM 41.4706 -89.0781 68° East 153 176 9,100  Level Chicago Center
Tue 10:11:21 PM 41.4861 -89.0261 68° East 152 175 9,100  Level Chicago Center
Tue 10:12:22 PM 41.5028 -88.9739 67° East 154 177 9,100  Level Chicago Center
Tue 10:13:24 PM 41.5192 -88.9228 67° East 152 175 9,100 -49 Level Chicago Center
Tue 10:14:25 PM 41.5344 -88.8694 69° East 155 178 9,000 -195 Descending Chicago Center
Tue 10:15:27 PM 41.5500 -88.8156 69° East 156 180 8,700 -341 Descending Chicago Center
Tue 10:16:28 PM 41.5703 -88.7519 67° East 156 180 8,300 -295 Descending Chicago Center
Tue 10:17:29 PM 41.5875 -88.7006 66° East 154 177 8,100 -98 Descending Chicago Center
Tue 10:18:31 PM 41.6033 -88.6486 68° East 152 175 8,100  Level Chicago Center
Tue 10:19:32 PM 41.6214 -88.6006 63° Northeast 148 170 8,100  Level Chicago Center
Tue 10:20:34 PM 41.6436 -88.5561 56° Northeast 144 166 8,100  Level Chicago Center
Tue 10:21:35 PM 41.6492 -88.4994 83° East 151 174 8,100  Level Chicago Center
Tue 10:22:37 PM 41.6583 -88.4436 78° East 154 177 8,100  Level Chicago Center
Tue 10:23:38 PM 41.6703 -88.3778 76° East 153 176 8,100  Level Chicago Center
Tue 10:24:39 PM 41.6800 -88.3225 77° East 153 176 8,100 -244 Level Chicago Center
Tue 10:25:41 PM 41.6806 -88.2631 89° East 158 182 7,600 -537 Descending Chicago Center
Tue 10:26:42 PM 41.6906 -88.2078 76° East 156 180 7,000 -537 Descending Chicago Center
Tue 10:27:44 PM 41.7269 -88.1936 16° North 142 163 6,500 -537 Descending Chicago Center
Tue 10:28:45 PM 41.7658 -88.2050 348° North 142 163 5,900 -541 Descending Chicago Center
Tue 10:29:46 PM 41.7817 -88.1583 66° East 142 163 5,400 -390 Descending Chicago Center
Tue 10:30:48 PM 41.7925 -88.1047 75° East 146 168 5,100 -634 Descending Chicago Center
Tue 10:31:49 PM 41.8228 -88.0508 53° Northeast 158 182 4,100 -878 Descending Chicago Center
Tue 10:32:51 PM 41.8586 -88.0122 39° Northeast 163 188 3,300 -878 Descending Chicago Center
Tue 10:33:52 PM 41.8886 -87.9764 42° Northeast 157 181 2,300 -990 Descending Chicago Center
Tue 10:34:28 PM 41.9000 -87.9500 60° Northeast 141 162 1,700 -813 Descending Chicago TRACON
Tue 10:35:28 PM 41.9333 -87.9167 37° Northeast 144 166 1,000 -700 Descending Chicago TRACON
Tue 10:37:00 PM 41.9667 -87.9000 41° Northeast  Level FlightAware Approximate

Login

Don't have an account? Register now (free) for customized features, flight alerts, and more!